createdAt,value
2022-09-22T00:02:37.465Z,9.20
2022-09-22T00:05:25.263Z,9.10
2022-09-22T00:08:13.040Z,9.00
2022-09-22T00:11:01.821Z,9.00
2022-09-22T00:13:51.626Z,8.90
2022-09-22T00:16:40.374Z,8.80
2022-09-22T00:19:30.592Z,8.80
2022-09-22T00:22:18.570Z,8.80
2022-09-22T00:25:06.943Z,8.80
2022-09-22T00:27:56.209Z,8.80
2022-09-22T00:30:44.010Z,8.80
2022-09-22T00:33:31.832Z,8.80
2022-09-22T00:36:22.593Z,8.70
2022-09-22T00:39:10.637Z,8.70
2022-09-22T00:41:58.510Z,8.70
2022-09-22T00:44:46.360Z,8.60
2022-09-22T00:47:35.809Z,8.60
2022-09-22T00:50:24.926Z,8.60
2022-09-22T00:53:15.804Z,8.50
2022-09-22T00:56:05.070Z,8.60
2022-09-22T00:58:53.843Z,8.60
2022-09-22T01:01:41.813Z,8.60
2022-09-22T01:04:29.820Z,8.50
2022-09-22T01:07:17.701Z,8.50
2022-09-22T01:10:07.691Z,8.50
2022-09-22T01:12:59.953Z,8.50
2022-09-22T01:15:50.619Z,8.50
2022-09-22T01:18:43.879Z,8.50
2022-09-22T01:21:36.920Z,8.50
2022-09-22T01:24:34.945Z,8.50
2022-09-22T01:27:37.675Z,8.50
2022-09-22T01:30:30.645Z,8.40
2022-09-22T01:33:23.207Z,8.40
2022-09-22T01:36:16.331Z,8.40
2022-09-22T01:39:07.534Z,8.30
2022-09-22T01:41:59.301Z,8.30
2022-09-22T01:44:50.807Z,8.30
2022-09-22T01:47:42.021Z,8.30
2022-09-22T01:50:31.090Z,8.30
2022-09-22T01:53:20.530Z,8.20
2022-09-22T01:56:10.303Z,8.20
2022-09-22T01:59:00.144Z,8.00
2022-09-22T02:01:51.090Z,8.20
2022-09-22T02:04:43.389Z,8.20
2022-09-22T02:07:34.246Z,8.20
2022-09-22T02:10:25.949Z,8.20
2022-09-22T02:13:13.967Z,8.20
2022-09-22T02:16:02.031Z,8.20
2022-09-22T02:18:51.928Z,8.20
2022-09-22T02:21:41.887Z,8.20
2022-09-22T02:24:30.934Z,8.20
2022-09-22T02:27:25.528Z,8.20
2022-09-22T02:30:13.723Z,8.20
2022-09-22T02:33:02.138Z,8.20
2022-09-22T02:35:52.857Z,8.20
2022-09-22T02:38:45.550Z,8.10
2022-09-22T02:41:36.703Z,8.10
2022-09-22T02:44:26.381Z,8.10
2022-09-22T02:47:15.572Z,8.10
2022-09-22T02:50:05.361Z,8.00
2022-09-22T02:52:54.055Z,8.00
2022-09-22T02:55:43.723Z,8.00
2022-09-22T02:58:31.617Z,8.00
2022-09-22T03:01:19.441Z,7.90
2022-09-22T03:04:07.394Z,7.90
2022-09-22T03:06:55.244Z,7.80
2022-09-22T03:09:43.665Z,7.80
2022-09-22T03:12:32.855Z,7.80
2022-09-22T03:15:23.832Z,7.80
2022-09-22T03:18:15.062Z,7.80
2022-09-22T03:21:02.897Z,7.80
2022-09-22T03:23:50.714Z,7.80
2022-09-22T03:26:38.685Z,7.80
2022-09-22T03:29:27.911Z,7.90
2022-09-22T03:32:15.718Z,7.90
2022-09-22T03:35:03.662Z,7.90
2022-09-22T03:37:51.413Z,7.90
2022-09-22T03:40:39.229Z,7.80
2022-09-22T03:43:27.088Z,7.80
2022-09-22T03:46:16.443Z,7.80
2022-09-22T03:49:04.483Z,7.80
2022-09-22T03:51:52.264Z,7.80
2022-09-22T03:54:40.046Z,7.80
2022-09-22T03:57:27.879Z,7.80
2022-09-22T04:00:17.023Z,7.70
2022-09-22T04:03:06.184Z,7.70
2022-09-22T04:05:53.994Z,7.70
2022-09-22T04:08:41.887Z,7.60
2022-09-22T04:11:29.653Z,7.60
2022-09-22T04:14:17.428Z,7.50
2022-09-22T04:17:05.944Z,7.50
2022-09-22T04:19:55.899Z,7.50
2022-09-22T04:22:43.692Z,7.40
2022-09-22T04:25:32.035Z,7.40
2022-09-22T04:28:20.051Z,7.30
2022-09-22T04:31:07.900Z,7.30
2022-09-22T04:33:55.782Z,7.30
2022-09-22T04:36:44.924Z,7.30
2022-09-22T04:39:32.785Z,7.30
2022-09-22T04:42:20.680Z,7.30
2022-09-22T04:45:08.957Z,7.30
2022-09-22T04:47:56.756Z,7.40
2022-09-22T04:50:47.980Z,7.40
2022-09-22T04:53:37.579Z,7.30
2022-09-22T04:56:25.354Z,7.30
2022-09-22T04:59:13.166Z,7.30
2022-09-22T05:02:01.487Z,7.30
2022-09-22T05:04:49.286Z,7.30
2022-09-22T05:07:37.089Z,7.30
2022-09-22T05:10:27.271Z,7.30
2022-09-22T05:13:15.523Z,7.30
2022-09-22T05:16:05.305Z,7.20
2022-09-22T05:18:53.175Z,7.20
2022-09-22T05:21:40.942Z,7.20
2022-09-22T05:24:28.786Z,7.20
2022-09-22T05:27:18.652Z,7.30
2022-09-22T05:30:06.958Z,7.30
2022-09-22T05:32:54.770Z,7.30
2022-09-22T05:35:42.674Z,7.40
2022-09-22T05:38:31.006Z,7.40
2022-09-22T05:41:18.827Z,7.30
2022-09-22T05:44:08.086Z,7.50
2022-09-22T05:46:55.953Z,7.50
2022-09-22T05:49:43.911Z,7.60
2022-09-22T05:52:31.705Z,7.70
2022-09-22T05:55:19.658Z,7.70
2022-09-22T05:58:09.275Z,7.70
2022-09-22T06:00:58.957Z,7.70
2022-09-22T06:03:46.813Z,7.70
2022-09-22T06:06:34.613Z,7.70
2022-09-22T06:09:22.496Z,7.80
2022-09-22T06:12:10.253Z,7.70
2022-09-22T06:14:58.104Z,7.80
2022-09-22T06:17:47.291Z,7.80
2022-09-22T06:20:35.214Z,7.90
2022-09-22T06:23:23.311Z,7.90
2022-09-22T06:26:11.173Z,7.90
2022-09-22T06:28:59.044Z,8.00
2022-09-22T06:31:48.881Z,8.00
2022-09-22T06:34:38.164Z,8.00
2022-09-22T06:37:26.037Z,8.10
2022-09-22T06:40:17.329Z,8.10
2022-09-22T06:43:07.575Z,8.20
2022-09-22T06:46:00.218Z,8.30
2022-09-22T06:48:50.147Z,8.40
2022-09-22T06:51:39.319Z,8.40
2022-09-22T06:54:27.116Z,8.50
2022-09-22T06:57:14.885Z,8.60
2022-09-22T07:00:03.696Z,8.60
2022-09-22T07:02:51.493Z,8.70
2022-09-22T07:05:39.517Z,8.80
2022-09-22T07:08:29.371Z,8.80
2022-09-22T07:11:19.335Z,9.00
2022-09-22T07:14:07.354Z,9.10
2022-09-22T07:16:55.265Z,9.20
2022-09-22T07:19:43.110Z,9.20
2022-09-22T07:22:30.939Z,9.30
2022-09-22T07:25:20.132Z,9.40
2022-09-22T07:28:13.639Z,9.50
2022-09-22T07:31:03.835Z,9.60
2022-09-22T07:33:53.269Z,9.80
2022-09-22T07:36:41.607Z,9.90
2022-09-22T07:39:29.423Z,10.00
2022-09-22T07:42:20.006Z,10.10
2022-09-22T07:45:15.037Z,10.20
2022-09-22T07:48:20.542Z,10.30
2022-09-22T07:51:14.266Z,10.40
2022-09-22T07:54:07.456Z,10.60
2022-09-22T07:56:58.241Z,10.60
2022-09-22T07:59:47.811Z,10.80
2022-09-22T08:02:35.619Z,10.90
2022-09-22T08:05:24.258Z,11.00
2022-09-22T08:08:12.344Z,11.10
2022-09-22T08:11:04.120Z,11.20
2022-09-22T08:13:53.630Z,11.20
2022-09-22T08:16:42.727Z,11.40
2022-09-22T08:19:32.108Z,11.40
2022-09-22T08:22:20.102Z,11.60
2022-09-22T08:25:12.344Z,11.70
2022-09-22T08:28:01.454Z,11.80
2022-09-22T08:30:49.679Z,11.90
2022-09-22T08:33:40.676Z,12.00
2022-09-22T08:36:28.706Z,12.10
2022-09-22T08:39:17.170Z,12.20
2022-09-22T08:42:09.606Z,12.40
2022-09-22T08:45:00.597Z,12.50
2022-09-22T08:48:07.090Z,12.60
2022-09-22T08:51:16.087Z,12.70
2022-09-22T08:54:04.432Z,12.80
2022-09-22T08:56:57.494Z,12.90
2022-09-22T08:59:52.120Z,13.00
2022-09-22T09:02:42.110Z,13.10
2022-09-22T09:05:44.938Z,13.10
2022-09-22T09:08:43.175Z,13.20
2022-09-22T09:11:38.969Z,13.30
2022-09-22T09:14:35.104Z,13.40
2022-09-22T09:17:25.620Z,13.50
2022-09-22T09:20:18.198Z,13.60
2022-09-22T09:23:10.074Z,13.70
2022-09-22T09:26:00.329Z,13.70
2022-09-22T09:28:50.360Z,13.80
2022-09-22T09:31:41.236Z,13.90
2022-09-22T09:34:30.002Z,14.00
2022-09-22T09:37:19.115Z,14.10
2022-09-22T09:40:08.870Z,14.20
2022-09-22T09:43:03.300Z,14.20
2022-09-22T09:45:56.329Z,14.40
2022-09-22T09:48:49.079Z,14.50
2022-09-22T09:51:41.095Z,14.50
2022-09-22T09:54:29.231Z,14.60
2022-09-22T09:57:18.101Z,14.70
2022-09-22T10:00:35.037Z,14.80
2022-09-22T10:03:29.220Z,14.90
2022-09-22T10:06:24.514Z,15.00
2022-09-22T10:09:12.326Z,15.10
2022-09-22T10:12:00.677Z,15.30
2022-09-22T10:14:50.260Z,15.40
2022-09-22T10:17:42.720Z,15.40
2022-09-22T10:20:31.692Z,15.50
2022-09-22T10:23:21.251Z,15.60
2022-09-22T10:26:17.635Z,15.70
2022-09-22T10:29:07.746Z,15.80
2022-09-22T10:32:07.510Z,15.80
2022-09-22T10:34:59.505Z,15.90
2022-09-22T10:37:47.774Z,16.00
2022-09-22T10:40:36.937Z,16.00
2022-09-22T10:43:35.483Z,16.10
2022-09-22T10:46:29.981Z,16.30
2022-09-22T10:49:25.146Z,16.40
2022-09-22T10:52:16.455Z,16.40
2022-09-22T10:55:10.307Z,16.40
2022-09-22T10:58:07.038Z,16.50
2022-09-22T11:01:01.073Z,16.60
2022-09-22T11:03:59.408Z,16.70
2022-09-22T11:07:11.747Z,16.90
2022-09-22T11:10:21.921Z,17.00
2022-09-22T11:13:16.988Z,17.20
2022-09-22T11:16:14.860Z,17.40
2022-09-22T11:19:08.871Z,17.50
2022-09-22T11:22:05.722Z,17.60
2022-09-22T11:25:03.741Z,17.70
2022-09-22T11:28:00.009Z,17.80
2022-09-22T11:30:50.955Z,17.90
2022-09-22T11:33:44.584Z,18.10
2022-09-22T11:36:39.719Z,18.30
2022-09-22T11:39:39.135Z,18.40
2022-09-22T11:42:31.618Z,18.50
2022-09-22T11:45:26.628Z,18.40
2022-09-22T11:48:23.161Z,18.50
2022-09-22T11:51:16.293Z,18.70
2022-09-22T11:54:09.530Z,18.90
2022-09-22T11:57:00.315Z,19.00
2022-09-22T11:59:52.182Z,19.20
2022-09-22T12:02:46.498Z,19.30
2022-09-22T12:05:39.317Z,19.50
2022-09-22T12:08:30.308Z,19.50
2022-09-22T12:11:20.408Z,19.60
2022-09-22T12:14:10.011Z,19.70
2022-09-22T12:16:59.457Z,19.80
2022-09-22T12:19:54.474Z,19.80
2022-09-22T12:22:50.863Z,19.60
2022-09-22T12:25:49.402Z,19.40
2022-09-22T12:28:41.947Z,19.20
2022-09-22T12:31:34.853Z,19.20
2022-09-22T12:34:23.820Z,19.20
2022-09-22T12:37:14.400Z,19.20
2022-09-22T12:40:06.596Z,19.20
2022-09-22T12:42:55.120Z,19.20
2022-09-22T12:45:43.583Z,19.20
2022-09-22T12:48:32.453Z,19.20
2022-09-22T12:51:38.293Z,19.00
2022-09-22T12:54:47.223Z,18.90
2022-09-22T12:57:44.957Z,18.90
2022-09-22T13:00:36.507Z,18.80
2022-09-22T13:03:42.550Z,18.80
2022-09-22T13:06:48.993Z,18.80
2022-09-22T13:09:36.978Z,18.70
2022-09-22T13:12:27.435Z,18.80
2022-09-22T13:15:18.798Z,18.90
2022-09-22T13:18:27.692Z,18.90
2022-09-22T13:21:23.876Z,18.80
2022-09-22T13:24:19.508Z,18.70
2022-09-22T13:27:08.394Z,18.50
2022-09-22T13:29:59.450Z,18.50
2022-09-22T13:32:52.112Z,18.40
2022-09-22T13:35:41.380Z,18.40
2022-09-22T13:38:29.800Z,18.30
2022-09-22T13:41:19.427Z,18.30
2022-09-22T13:44:10.724Z,18.40
2022-09-22T13:46:59.873Z,18.40
2022-09-22T13:49:51.755Z,18.40
2022-09-22T13:52:40.826Z,18.40
2022-09-22T13:55:31.120Z,18.40
2022-09-22T13:58:22.701Z,18.50
2022-09-22T14:01:14.820Z,18.50
2022-09-22T14:04:03.380Z,18.50
2022-09-22T14:06:54.241Z,18.30
2022-09-22T14:09:42.310Z,18.30
2022-09-22T14:12:30.529Z,18.20
2022-09-22T14:15:33.632Z,18.20
2022-09-22T14:18:26.399Z,18.20
2022-09-22T14:21:14.352Z,18.20
2022-09-22T14:24:03.605Z,18.20
2022-09-22T14:26:52.323Z,18.20
2022-09-22T14:29:40.732Z,18.20
2022-09-22T14:32:33.065Z,18.30
2022-09-22T14:35:23.491Z,18.40
2022-09-22T14:38:21.738Z,18.60
2022-09-22T14:41:23.462Z,18.90
2022-09-22T14:44:26.641Z,19.10
2022-09-22T14:47:28.117Z,19.30
2022-09-22T14:50:18.805Z,19.50
2022-09-22T14:53:08.167Z,19.50
2022-09-22T14:56:00.937Z,19.50
2022-09-22T14:58:52.341Z,19.30
2022-09-22T15:01:57.829Z,19.10
2022-09-22T15:04:49.437Z,19.00
2022-09-22T15:07:38.243Z,19.00
2022-09-22T15:10:27.850Z,18.90
2022-09-22T15:13:19.958Z,18.80
2022-09-22T15:16:22.722Z,18.60
2022-09-22T15:19:13.231Z,18.50
2022-09-22T15:22:01.885Z,18.50
2022-09-22T15:24:49.721Z,18.30
2022-09-22T15:27:40.637Z,18.30
2022-09-22T15:30:32.178Z,18.30
2022-09-22T15:33:20.456Z,18.40
2022-09-22T15:36:13.575Z,18.60
2022-09-22T15:39:02.329Z,18.70
2022-09-22T15:41:50.652Z,18.90
2022-09-22T15:44:38.774Z,19.00
2022-09-22T15:47:26.799Z,19.10
2022-09-22T15:50:15.212Z,19.30
2022-09-22T15:53:04.441Z,19.40
2022-09-22T15:55:52.509Z,19.40
2022-09-22T15:58:41.273Z,19.50
2022-09-22T16:01:29.535Z,19.50
2022-09-22T16:04:17.908Z,19.60
2022-09-22T16:07:08.286Z,19.60
2022-09-22T16:09:57.536Z,19.60
2022-09-22T16:12:47.445Z,19.60
2022-09-22T16:15:35.287Z,19.60
2022-09-22T16:18:23.281Z,19.60
2022-09-22T16:21:19.571Z,19.50
2022-09-22T16:24:09.481Z,19.50
2022-09-22T16:26:59.696Z,19.30
2022-09-22T16:29:47.914Z,19.10
2022-09-22T16:32:36.198Z,19.00
2022-09-22T16:35:24.750Z,19.00
2022-09-22T16:38:12.593Z,19.00
2022-09-22T16:41:01.186Z,18.90
2022-09-22T16:43:50.434Z,18.90
2022-09-22T16:46:38.953Z,18.70
2022-09-22T16:49:26.966Z,18.50
2022-09-22T16:52:15.188Z,18.30
2022-09-22T16:55:03.674Z,18.30
2022-09-22T16:57:51.429Z,18.10
2022-09-22T17:00:40.617Z,18.00
2022-09-22T17:03:28.398Z,17.90
2022-09-22T17:06:17.283Z,17.70
2022-09-22T17:09:05.827Z,17.40
2022-09-22T17:11:53.694Z,17.30
2022-09-22T17:14:43.571Z,17.10
2022-09-22T17:17:32.815Z,16.90
2022-09-22T17:20:22.005Z,16.80
2022-09-22T17:23:09.851Z,16.70
2022-09-22T17:25:58.262Z,16.50
2022-09-22T17:28:46.321Z,16.60
2022-09-22T17:31:35.931Z,16.50
2022-09-22T17:34:25.535Z,16.40
2022-09-22T17:37:14.223Z,16.30
2022-09-22T17:40:02.860Z,16.20
2022-09-22T17:42:52.503Z,16.00
2022-09-22T17:45:40.282Z,16.00
2022-09-22T17:48:45.719Z,15.90
2022-09-22T17:51:53.558Z,15.90
2022-09-22T17:54:59.670Z,15.80
2022-09-22T17:57:47.502Z,15.70
2022-09-22T18:00:35.938Z,15.60
2022-09-22T18:03:23.807Z,15.60
2022-09-22T18:06:14.531Z,15.50
2022-09-22T18:09:03.745Z,15.50
2022-09-22T18:11:51.592Z,15.40
2022-09-22T18:14:41.181Z,15.30
2022-09-22T18:17:31.638Z,15.30
2022-09-22T18:20:20.813Z,15.30
2022-09-22T18:23:08.589Z,15.20
2022-09-22T18:26:01.866Z,15.10
2022-09-22T18:28:50.663Z,15.10
2022-09-22T18:31:38.862Z,15.20
2022-09-22T18:34:31.065Z,15.10
2022-09-22T18:37:20.461Z,14.90
2022-09-22T18:40:09.108Z,14.80
2022-09-22T18:42:58.365Z,14.60
2022-09-22T18:45:46.183Z,14.60
2022-09-22T18:48:33.958Z,14.60
2022-09-22T18:51:21.777Z,14.50
2022-09-22T18:54:15.284Z,14.40
2022-09-22T18:57:04.249Z,14.30
2022-09-22T18:59:54.106Z,14.30
2022-09-22T19:02:42.002Z,14.20
2022-09-22T19:05:29.890Z,14.20
2022-09-22T19:08:17.673Z,14.10
2022-09-22T19:11:05.600Z,14.10
2022-09-22T19:13:53.695Z,14.00
2022-09-22T19:16:42.902Z,14.00
2022-09-22T19:19:31.616Z,14.00
2022-09-22T19:22:19.839Z,13.90
2022-09-22T19:25:08.068Z,13.90
2022-09-22T19:27:56.329Z,13.80
2022-09-22T19:30:44.203Z,13.80
2022-09-22T19:33:33.394Z,13.70
2022-09-22T19:36:21.364Z,13.70
2022-09-22T19:39:09.648Z,13.60
2022-09-22T19:41:57.428Z,13.50
2022-09-22T19:44:45.270Z,13.40
2022-09-22T19:47:33.081Z,13.40
2022-09-22T19:50:22.441Z,13.30
2022-09-22T19:53:10.251Z,13.30
2022-09-22T19:55:58.211Z,13.40
2022-09-22T19:58:46.087Z,13.40
2022-09-22T20:01:35.468Z,13.50
2022-09-22T20:04:23.504Z,13.50
2022-09-22T20:07:12.672Z,13.40
2022-09-22T20:10:02.212Z,13.30
2022-09-22T20:12:50.665Z,13.10
2022-09-22T20:15:39.422Z,13.00
2022-09-22T20:18:27.205Z,12.80
2022-09-22T20:21:15.515Z,12.70
2022-09-22T20:24:05.169Z,12.60
2022-09-22T20:26:53.850Z,12.60
2022-09-22T20:29:41.740Z,12.50
2022-09-22T20:32:31.421Z,12.40
2022-09-22T20:35:21.934Z,12.40
2022-09-22T20:38:11.876Z,12.40
2022-09-22T20:41:02.819Z,12.30
2022-09-22T20:43:50.953Z,12.30
2022-09-22T20:46:39.129Z,12.30
2022-09-22T20:49:27.271Z,12.20
2022-09-22T20:52:16.114Z,12.20
2022-09-22T20:55:04.040Z,12.20
2022-09-22T20:57:53.711Z,12.20
2022-09-22T21:00:41.545Z,12.10
2022-09-22T21:03:29.766Z,12.00
2022-09-22T21:06:18.241Z,12.00
2022-09-22T21:09:23.635Z,11.90
2022-09-22T21:12:13.502Z,11.90
2022-09-22T21:15:02.881Z,11.80
2022-09-22T21:17:52.190Z,11.80
2022-09-22T21:20:41.049Z,11.80
2022-09-22T21:23:28.850Z,11.80
2022-09-22T21:26:17.260Z,11.80
2022-09-22T21:29:05.153Z,11.70
2022-09-22T21:31:54.335Z,11.60
2022-09-22T21:34:42.893Z,11.50
2022-09-22T21:37:31.333Z,11.50
2022-09-22T21:40:19.249Z,11.50
2022-09-22T21:43:07.188Z,11.40
2022-09-22T21:46:02.913Z,11.40
2022-09-22T21:48:59.105Z,11.40
2022-09-22T21:51:47.361Z,11.30
2022-09-22T21:54:35.304Z,11.20
2022-09-22T21:57:23.315Z,11.10
2022-09-22T22:00:11.746Z,11.20
2022-09-22T22:03:17.138Z,11.10
2022-09-22T22:06:08.256Z,11.10
2022-09-22T22:09:00.499Z,11.00
2022-09-22T22:11:49.557Z,10.90
2022-09-22T22:14:37.479Z,10.80
2022-09-22T22:17:25.452Z,10.80
2022-09-22T22:20:13.341Z,10.70
2022-09-22T22:23:02.534Z,10.60
2022-09-22T22:25:55.872Z,10.50
2022-09-22T22:28:44.310Z,10.40
2022-09-22T22:31:32.194Z,10.40
2022-09-22T22:34:20.908Z,10.40
2022-09-22T22:37:10.127Z,10.30
2022-09-22T22:40:00.129Z,10.40
2022-09-22T22:42:49.155Z,10.30
2022-09-22T22:45:37.006Z,10.30
2022-09-22T22:48:24.847Z,10.20
2022-09-22T22:51:15.719Z,10.10
2022-09-22T22:54:03.711Z,10.10
2022-09-22T22:56:53.051Z,10.20
2022-09-22T22:59:41.105Z,10.10
2022-09-22T23:02:30.952Z,10.20
2022-09-22T23:05:18.874Z,10.30
2022-09-22T23:08:06.660Z,10.20
2022-09-22T23:11:02.596Z,10.20
2022-09-22T23:13:53.634Z,10.20
2022-09-22T23:16:43.444Z,10.20
2022-09-22T23:19:31.323Z,10.20
2022-09-22T23:22:19.449Z,10.10
2022-09-22T23:25:07.600Z,10.10
2022-09-22T23:27:55.439Z,10.10
2022-09-22T23:30:44.947Z,10.10
2022-09-22T23:33:33.084Z,10.10
2022-09-22T23:36:23.062Z,10.10
2022-09-22T23:39:12.244Z,10.00
2022-09-22T23:42:00.370Z,10.00
2022-09-22T23:44:48.191Z,10.00
2022-09-22T23:47:37.506Z,10.00
2022-09-22T23:50:25.381Z,9.90
2022-09-22T23:53:13.288Z,9.90
2022-09-22T23:56:02.423Z,9.80
2022-09-22T23:58:51.300Z,9.70
